Time;durP1;ratioP1;P1;durP2;ratioP2;P2;SDS_P1;SDS_P2;PMS_P1;PMS_P2;Temp;Humidity;BMP_temperature;BMP_pressure;BME280_temperature;BME280_humidity;BME280_pressure;Samples;Min_cycle;Max_cycle;Signal;HPM_P1;HPM_P2
2022/08/20 00:00:28;;;;;;;5.60;1.47;;;;;;;20.67;70.91;98683.13;4976848;28;20236;-51
2022/08/20 00:02:58;;;;;;;2.43;1.33;;;;;;;20.67;70.84;98683.94;4973573;28;20287;-52
2022/08/20 00:05:27;;;;;;;2.60;1.30;;;;;;;20.68;71.05;98687.38;4973193;28;20232;-54
2022/08/20 00:07:54;;;;;;;2.33;1.50;;;;;;;20.67;70.99;98685.78;4954458;28;20224;-50
2022/08/20 00:10:22;;;;;;;3.90;1.70;;;;;;;20.63;71.25;98693.34;4975615;28;20295;-51
2022/08/20 00:12:51;;;;;;;2.10;1.80;;;;;;;20.62;71.19;98692.53;4973715;28;20231;-50
2022/08/20 00:15:21;;;;;;;2.17;1.53;;;;;;;20.72;70.65;98686.75;4977666;28;20593;-51
2022/08/20 00:17:49;;;;;;;2.20;1.43;;;;;;;20.70;70.86;98680.03;4975060;28;20641;-51
2022/08/20 00:20:17;;;;;;;3.77;1.67;;;;;;;20.77;70.58;98675.47;4975311;28;20232;-52
2022/08/20 00:22:44;;;;;;;3.80;1.40;;;;;;;20.73;70.96;98684.91;4975979;28;20719;-49
2022/08/20 00:25:11;;;;;;;1.70;1.57;;;;;;;20.72;71.18;98676.16;4973786;28;20763;-50
2022/08/20 00:27:39;;;;;;;2.67;1.60;;;;;;;20.73;70.96;98677.78;4975846;28;20224;-50
2022/08/20 00:30:10;;;;;;;2.27;1.90;;;;;;;20.73;71.02;98674.28;4978381;28;20254;-51
2022/08/20 00:32:58;;;;;;;3.10;2.33;;;;;;;20.75;71.12;98677.53;4974190;28;20378;-49
2022/08/20 00:35:28;;;;;;;2.93;1.97;;;;;;;20.75;71.22;98674.88;4984055;28;20264;-50
2022/08/20 00:37:55;;;;;;;4.13;2.37;;;;;;;20.73;71.13;98685.72;4980803;28;20228;-50
2022/08/20 00:40:29;;;;;;;4.30;2.03;;;;;;;20.72;71.03;98685.94;4971312;28;20306;-52
2022/08/20 00:43:00;;;;;;;2.60;1.70;;;;;;;20.74;71.25;98678.56;4978650;28;20777;-53
2022/08/20 00:45:32;;;;;;;3.03;2.10;;;;;;;20.70;71.65;98686.16;4974598;28;20227;-49
2022/08/20 00:47:58;;;;;;;2.88;2.40;;;;;;;20.71;71.49;98681.66;4974561;28;20449;-50
2022/08/20 00:50:31;;;;;;;4.73;2.40;;;;;;;20.69;71.49;98681.88;4977067;28;20593;-50
2022/08/20 00:52:58;;;;;;;3.57;2.50;;;;;;;20.73;71.45;98676.94;4972480;28;20649;-50
2022/08/20 00:55:26;;;;;;;4.27;2.43;;;;;;;20.72;71.76;98683.28;4977811;28;20213;-50
2022/08/20 00:57:59;;;;;;;4.10;2.60;;;;;;;20.69;71.41;98684.53;4975584;28;20317;-50
2022/08/20 01:00:30;;;;;;;3.33;2.50;;;;;;;20.67;71.71;98694.53;4972275;28;20247;-49
2022/08/20 01:02:57;;;;;;;4.33;2.60;;;;;;;20.68;71.74;98700.66;4975398;28;20729;-51
2022/08/20 01:05:24;;;;;;;4.37;2.70;;;;;;;20.67;72.33;98693.75;4975385;28;20266;-50
2022/08/20 01:07:53;;;;;;;3.03;2.33;;;;;;;20.65;71.87;98694.78;4974530;28;20258;-49
2022/08/20 01:10:24;;;;;;;4.90;2.40;;;;;;;20.64;72.11;98697.63;4957031;28;20233;-50
2022/08/20 01:12:53;;;;;;;2.80;2.50;;;;;;;20.63;72.08;98699.47;4975347;28;20237;-50
2022/08/20 01:15:23;;;;;;;3.17;2.70;;;;;;;20.61;72.14;98704.19;4973885;28;20237;-50
2022/08/20 01:17:56;;;;;;;3.53;2.77;;;;;;;20.62;72.01;98704.97;4977488;28;20235;-50
2022/08/20 01:20:27;;;;;;;5.70;2.63;;;;;;;20.61;72.17;98703.34;4973670;28;20258;-50
2022/08/20 01:25:52;;;;;;;4.47;2.67;;;;;;;20.58;72.22;98701.13;4968339;28;20232;-50
2022/08/20 01:28:24;;;;;;;3.40;2.80;;;;;;;20.57;72.56;98710.13;4975107;28;20232;-49
2022/08/20 01:30:51;;;;;;;5.17;2.47;;;;;;;20.57;72.37;98708.28;4970854;28;20254;-51
2022/08/20 01:33:18;;;;;;;2.70;2.50;;;;;;;20.54;72.21;98706.06;4972632;28;20669;-52
2022/08/20 01:35:46;;;;;;;6.20;2.57;;;;;;;20.56;72.87;98711.97;4971274;28;20897;-50
2022/08/20 01:38:13;;;;;;;3.97;2.80;;;;;;;20.54;73.15;98706.06;4977407;28;20235;-51
2022/08/20 01:41:07;;;;;;;4.50;2.80;;;;;;;20.53;72.86;98707.09;4974458;28;20231;-50
2022/08/20 01:43:34;;;;;;;3.57;2.60;;;;;;;20.53;72.98;98714.22;4972803;28;20264;-50
2022/08/20 01:46:01;;;;;;;8.50;3.60;;;;;;;20.53;72.88;98714.22;4974602;28;20246;-50
2022/08/20 01:48:29;;;;;;;5.33;2.80;;;;;;;20.50;72.82;98715.47;4972714;28;20232;-50
2022/08/20 01:51:03;;;;;;;3.27;2.97;;;;;;;20.49;73.10;98716.50;4974044;28;20231;-50
2022/08/20 01:53:32;;;;;;;4.87;2.70;;;;;;;20.45;73.20;98712.66;4974607;28;21125;-50
2022/08/20 01:56:01;;;;;;;4.90;2.73;;;;;;;20.45;73.32;98712.66;4974965;28;20231;-51
2022/08/20 01:58:28;;;;;;;5.47;2.73;;;;;;;20.44;73.51;98719.78;4983000;28;20309;-51
2022/08/20 02:00:55;;;;;;;3.23;2.93;;;;;;;20.41;73.57;98717.53;4981155;28;20233;-50
2022/08/20 02:03:22;;;;;;;7.33;2.97;;;;;;;20.40;73.98;98729.19;4977935;28;20240;-51
2022/08/20 02:06:09;;;;;;;6.97;3.03;;;;;;;20.41;73.67;98728.16;4979397;28;20592;-53
2022/08/20 02:08:35;;;;;;;4.10;3.10;;;;;;;20.37;74.01;98732.25;4978932;28;20245;-52
2022/08/20 02:11:04;;;;;;;5.07;3.13;;;;;;;20.36;73.90;98738.56;4978179;28;20313;-50
2022/08/20 02:13:31;;;;;;;4.13;2.90;;;;;;;20.37;74.03;98734.91;4979729;28;20244;-49
2022/08/20 02:15:58;;;;;;;5.87;2.77;;;;;;;20.35;73.90;98735.13;4976562;28;20319;-51
2022/08/20 02:18:25;;;;;;;5.63;3.10;;;;;;;20.34;74.31;98735.31;4977537;28;20312;-51
2022/08/20 02:20:52;;;;;;;3.93;3.07;;;;;;;20.31;74.33;98741.03;4977054;28;20920;-52
2022/08/20 02:23:19;;;;;;;5.83;3.10;;;;;;;20.30;74.85;98742.06;4977219;28;20579;-51
2022/08/20 02:25:47;;;;;;;3.83;3.40;;;;;;;20.30;74.64;98740.25;4979026;28;20290;-53
2022/08/20 02:28:19;;;;;;;4.20;3.40;;;;;;;20.30;74.49;98739.41;4981026;28;20291;-51
2022/08/20 02:30:51;;;;;;;3.50;3.03;;;;;;;20.30;74.67;98739.41;4974436;28;20995;-53
2022/08/20 02:33:20;;;;;;;4.17;3.37;;;;;;;20.27;74.66;98732.72;4980464;28;20260;-51
2022/08/20 02:35:49;;;;;;;4.13;3.50;;;;;;;20.27;74.79;98737.19;4979739;28;20224;-53
2022/08/20 02:38:16;;;;;;;4.63;3.63;;;;;;;20.26;74.97;98733.75;4974951;28;20243;-51
2022/08/20 02:40:44;;;;;;;4.57;3.40;;;;;;;20.27;75.16;98729.25;4978987;28;20233;-51
2022/08/20 02:43:13;;;;;;;5.50;3.53;;;;;;;20.26;74.69;98725.78;4977940;28;20236;-51
2022/08/20 02:45:43;;;;;;;6.33;3.90;;;;;;;20.23;75.22;98725.38;4975595;28;20236;-52
2022/08/20 02:48:14;;;;;;;4.47;3.13;;;;;;;20.23;75.49;98723.56;4978842;28;20266;-53
2022/08/20 02:50:43;;;;;;;4.80;3.27;;;;;;;20.20;75.15;98722.13;4978146;28;20565;-53
2022/08/20 02:53:10;;;;;;;6.17;3.60;;;;;;;20.19;75.54;98725.00;4979785;28;20244;-50
2022/08/20 02:55:37;;;;;;;4.03;3.63;;;;;;;20.20;75.53;98716.03;4980139;28;20228;-51
2022/08/20 02:58:04;;;;;;;5.03;3.03;;;;;;;20.17;75.69;98719.09;4977924;28;20235;-52
2022/08/20 03:00:32;;;;;;;4.27;3.47;;;;;;;20.13;76.02;98712.59;4976973;28;20287;-51
2022/08/20 03:03:00;;;;;;;6.10;3.30;;;;;;;20.12;76.05;98718.94;4973794;28;20234;-53
2022/08/20 03:05:28;;;;;;;5.57;3.50;;;;;;;20.10;76.48;98716.50;4972657;28;20242;-50
2022/08/20 03:07:55;;;;;;;5.80;3.30;;;;;;;20.07;76.55;98714.28;4968289;28;20263;-51
2022/08/20 03:10:25;;;;;;;4.60;3.47;;;;;;;20.05;76.54;98716.31;4970043;28;20235;-51
2022/08/20 03:12:52;;;;;;;3.43;3.07;;;;;;;20.05;76.77;98713.66;4974006;28;20248;-51
2022/08/20 03:15:20;;;;;;;5.10;3.50;;;;;;;20.04;77.41;98717.34;4978328;28;20255;-51
2022/08/20 03:17:47;;;;;;;4.23;3.57;;;;;;;20.02;77.16;98719.38;4980361;28;20265;-51
2022/08/20 03:20:16;;;;;;;5.80;3.83;;;;;;;20.04;77.48;98720.00;4978869;28;20877;-50
2022/08/20 03:22:42;;;;;;;4.90;3.70;;;;;;;20.03;77.51;98716.50;4980403;28;20322;-51
2022/08/20 03:25:11;;;;;;;4.60;3.60;;;;;;;20.09;76.81;98714.88;4977020;28;20303;-51
2022/08/20 03:27:38;;;;;;;5.40;3.53;;;;;;;20.03;77.05;98715.72;4963569;28;20252;-53
2022/08/20 03:30:07;;;;;;;5.73;3.30;;;;;;;20.12;76.46;98713.63;4973701;28;20243;-51
2022/08/20 03:32:33;;;;;;;5.43;3.20;;;;;;;20.05;76.83;98709.16;4975215;28;20239;-52
2022/08/20 03:35:00;;;;;;;4.63;3.53;;;;;;;19.99;77.70;98704.72;4976385;28;20232;-51
2022/08/20 03:37:31;;;;;;;4.03;3.37;;;;;;;19.96;77.95;98710.44;4983670;28;20232;-52
2022/08/20 03:39:57;;;;;;;7.93;3.67;;;;;;;19.96;77.59;98709.63;4972917;28;20267;-51
2022/08/20 03:42:25;;;;;;;6.00;3.57;;;;;;;19.90;77.86;98708.63;4976029;28;20293;-51
2022/08/20 03:44:51;;;;;;;4.93;4.10;;;;;;;19.94;77.55;98707.19;4975044;28;20281;-51
2022/08/20 03:47:18;;;;;;;4.33;3.90;;;;;;;19.91;77.79;98712.88;4968788;28;20329;-51
2022/08/20 03:49:45;;;;;;;6.37;3.60;;;;;;;19.93;77.76;98707.41;4973237;28;20240;-51
2022/08/20 03:52:14;;;;;;;6.47;3.53;;;;;;;19.93;77.83;98704.75;4975115;28;20244;-51
2022/08/20 03:54:44;;;;;;;5.43;4.13;;;;;;;19.93;77.87;98702.91;4962229;28;20319;-51
2022/08/20 03:57:14;;;;;;;3.93;3.53;;;;;;;19.96;77.93;98714.94;4979417;28;20258;-51
2022/08/20 03:59:41;;;;;;;6.23;3.47;;;;;;;19.96;78.06;98709.63;4972682;28;20316;-51
2022/08/20 04:02:08;;;;;;;4.40;3.47;;;;;;;19.98;77.69;98718.19;4971070;28;20273;-51
2022/08/20 04:04:35;;;;;;;3.90;3.50;;;;;;;19.99;77.85;98710.00;4972553;28;20234;-53
2022/08/20 04:07:09;;;;;;;5.27;3.63;;;;;;;19.95;77.96;98716.75;4968984;28;20718;-51
2022/08/20 04:09:37;;;;;;;4.37;3.90;;;;;;;19.96;77.87;98715.72;4968118;28;20236;-53
2022/08/20 04:12:06;;;;;;;5.90;3.70;;;;;;;19.97;78.25;98720.00;4977601;28;20242;-51
2022/08/20 04:14:35;;;;;;;5.30;3.67;;;;;;;19.94;78.10;98716.97;4972911;28;20630;-54
2022/08/20 04:17:05;;;;;;;8.47;4.43;;;;;;;19.96;78.14;98722.88;4967297;28;20243;-51
2022/08/20 04:19:33;;;;;;;7.03;3.77;;;;;;;19.98;78.33;98726.13;4969038;28;20259;-51
2022/08/20 04:22:00;;;;;;;5.27;3.50;;;;;;;19.96;77.94;98721.03;4967067;28;20267;-50
2022/08/20 04:24:27;;;;;;;5.10;3.57;;;;;;;19.92;78.01;98727.75;4973130;28;20228;-50
2022/08/20 04:26:54;;;;;;;4.40;3.30;;;;;;;19.93;78.08;98728.59;4972782;28;20706;-52
2022/08/20 04:29:23;;;;;;;5.20;3.60;;;;;;;19.97;78.46;98727.94;4973840;28;20253;-53
2022/08/20 04:31:50;;;;;;;6.70;3.87;;;;;;;19.94;78.36;98727.56;4976210;28;20262;-52
2022/08/20 04:34:18;;;;;;;4.40;3.90;;;;;;;19.94;78.29;98725.72;4969707;28;20234;-51
2022/08/20 04:36:46;;;;;;;4.50;3.80;;;;;;;19.92;78.27;98730.41;4961825;28;20286;-51
2022/08/20 04:39:13;;;;;;;9.07;4.20;;;;;;;19.90;78.50;98735.94;4978562;28;20286;-52
2022/08/20 04:41:40;;;;;;;4.90;4.40;;;;;;;19.93;78.63;98736.53;4967587;28;20239;-52
2022/08/20 04:44:07;;;;;;;6.10;3.83;;;;;;;19.92;78.45;98743.66;4967010;28;20582;-53
2022/08/20 04:46:35;;;;;;;4.63;3.83;;;;;;;19.93;78.47;98739.19;4978739;28;20345;-52
2022/08/20 04:49:03;;;;;;;5.40;4.07;;;;;;;19.92;78.40;98738.34;4969549;28;20239;-52
2022/08/20 04:51:30;;;;;;;7.80;4.33;;;;;;;19.92;78.01;98746.31;4965613;28;20578;-52
2022/08/20 04:53:58;;;;;;;6.30;4.73;;;;;;;19.90;78.15;98741.22;4965543;28;23577;-51
2022/08/20 04:56:27;;;;;;;4.73;4.17;;;;;;;19.94;77.89;98738.97;4973058;28;20688;-51
2022/08/20 04:58:56;;;;;;;4.57;4.13;;;;;;;19.97;78.44;98745.69;4963794;28;20248;-52
2022/08/20 05:01:24;;;;;;;5.00;4.47;;;;;;;19.98;78.16;98747.31;4974698;28;20276;-51
2022/08/20 05:03:54;;;;;;;7.40;4.50;;;;;;;19.96;78.15;98749.38;4962766;28;20260;-50
2022/08/20 05:06:23;;;;;;;8.87;4.50;;;;;;;19.94;78.35;98749.56;4982466;28;20311;-51
2022/08/20 05:08:50;;;;;;;5.37;4.40;;;;;;;19.91;78.58;98747.31;4975646;28;20290;-54
2022/08/20 05:11:17;;;;;;;5.97;4.07;;;;;;;19.90;78.61;98751.00;4972505;28;20255;-51
2022/08/20 05:13:44;;;;;;;6.10;4.37;;;;;;;19.99;78.25;98756.91;4970955;28;20646;-51
2022/08/20 05:16:10;;;;;;;6.17;3.83;;;;;;;19.89;78.51;98747.56;4973182;28;20239;-51
2022/08/20 05:18:37;;;;;;;6.40;4.23;;;;;;;19.91;78.94;98757.94;4976954;28;20258;-51
2022/08/20 05:21:06;;;;;;;5.80;4.23;;;;;;;19.92;78.95;98756.91;4980046;28;20240;-54
2022/08/20 05:23:35;;;;;;;5.20;4.00;;;;;;;19.97;78.57;98762.38;4966937;28;20229;-52
2022/08/20 05:26:06;;;;;;;5.43;4.17;;;;;;;20.03;78.25;98763.41;4969442;28;20240;-51
2022/08/20 05:28:33;;;;;;;4.83;4.00;;;;;;;20.01;78.34;98771.53;4964934;28;20235;-51
2022/08/20 05:31:01;;;;;;;10.77;3.90;;;;;;;20.13;77.82;98773.56;4971911;28;20778;-52
2022/08/20 05:33:28;;;;;;;5.60;3.70;;;;;;;20.21;77.55;98770.66;4972330;28;20258;-51
2022/08/20 05:35:57;;;;;;;5.53;3.50;;;;;;;20.12;77.76;98767.44;4970848;28;20238;-52
2022/08/20 05:38:28;;;;;;;4.90;3.13;;;;;;;20.21;77.88;98771.47;4973710;28;20266;-50
2022/08/20 05:40:55;;;;;;;7.80;3.70;;;;;;;20.30;77.36;98769.41;4974377;28;20268;-54
2022/08/20 05:43:22;;;;;;;4.20;3.40;;;;;;;20.35;76.40;98766.09;4975255;28;20634;-51
2022/08/20 05:45:51;;;;;;;6.43;3.37;;;;;;;20.22;77.70;98769.66;4974991;28;20668;-50
2022/08/20 05:48:20;;;;;;;4.63;3.60;;;;;;;20.26;77.60;98773.50;4976678;28;20708;-51
2022/08/20 05:50:49;;;;;;;6.83;3.37;;;;;;;20.28;77.08;98778.56;4969468;28;20244;-51
2022/08/20 05:53:16;;;;;;;7.67;4.10;;;;;;;20.32;77.17;98783.25;4972810;28;20304;-53
2022/08/20 05:55:45;;;;;;;5.23;4.40;;;;;;;20.20;77.61;98777.78;4971255;28;20449;-51
2022/08/20 05:58:17;;;;;;;5.73;4.23;;;;;;;20.20;77.95;98779.63;4971169;28;20694;-51
2022/08/20 06:00:44;;;;;;;5.57;3.83;;;;;;;20.21;78.21;98795.31;4977609;28;20246;-52
2022/08/20 06:05:54;;;;;;;4.80;3.90;;;;;;;20.25;77.63;98785.13;4966717;28;20706;-51
2022/08/20 06:08:22;;;;;;;7.13;4.30;;;;;;;20.17;78.25;98786.16;4972418;28;20578;-51
2022/08/20 06:10:50;;;;;;;9.93;4.40;;;;;;;20.30;77.46;98787.13;4970804;28;20238;-51
2022/08/20 06:13:17;;;;;;;7.70;4.90;;;;;;;20.25;77.92;98792.25;4965510;28;20626;-51
2022/08/20 06:15:44;;;;;;;6.03;4.60;;;;;;;20.32;77.26;98793.88;4973627;28;20657;-51
2022/08/20 06:18:11;;;;;;;9.23;5.37;;;;;;;20.33;77.39;98794.66;4967524;28;20863;-51
2022/08/20 06:20:38;;;;;;;10.13;4.40;;;;;;;20.27;78.00;98795.50;4968616;28;20241;-52
2022/08/20 06:23:06;;;;;;;8.93;4.37;;;;;;;20.30;77.70;98797.72;4967204;28;20244;-51
2022/08/20 06:25:33;;;;;;;5.67;4.47;;;;;;;20.38;77.30;98800.16;4965879;28;20239;-51
2022/08/20 06:28:02;;;;;;;6.97;4.43;;;;;;;20.09;78.90;98794.38;4971176;28;20243;-51
2022/08/20 06:30:29;;;;;;;6.03;4.33;;;;;;;20.17;78.52;98796.75;4971634;28;20316;-50
2022/08/20 06:32:56;;;;;;;5.80;4.57;;;;;;;20.38;78.33;98796.69;4973637;28;20240;-54
2022/08/20 06:35:23;;;;;;;5.50;4.30;;;;;;;20.38;77.64;98792.19;4962172;28;20319;-51
2022/08/20 06:37:51;;;;;;;5.73;4.37;;;;;;;20.48;77.33;98802.38;4962413;28;20232;-52
2022/08/20 06:40:21;;;;;;;6.30;4.23;;;;;;;20.65;76.42;98800.84;4966920;28;20708;-50
2022/08/20 06:42:48;;;;;;;5.30;4.50;;;;;;;20.65;76.23;98802.69;4967972;28;20259;-51
2022/08/20 06:45:23;;;;;;;7.33;4.70;;;;;;;20.78;75.92;98794.69;4969432;28;20240;-51
2022/08/20 06:47:54;;;;;;;5.37;4.20;;;;;;;21.00;75.00;98799.66;4962817;28;20239;-54
2022/08/20 06:50:23;;;;;;;7.70;4.53;;;;;;;20.96;74.97;98798.44;4971475;28;20236;-51
2022/08/20 06:52:50;;;;;;;5.90;4.90;;;;;;;21.09;74.75;98803.66;4977938;28;20255;-51
2022/08/20 06:55:17;;;;;;;6.67;5.07;;;;;;;21.07;74.51;98800.41;4976997;28;20255;-51
2022/08/20 06:57:44;;;;;;;5.63;4.60;;;;;;;21.17;74.24;98805.22;4974265;28;20238;-52
2022/08/20 07:00:14;;;;;;;5.37;4.20;;;;;;;21.05;74.63;98805.13;4971389;28;20647;-51
2022/08/20 07:02:42;;;;;;;6.10;4.70;;;;;;;20.88;75.03;98804.81;4974419;28;20230;-53
2022/08/20 07:05:10;;;;;;;6.07;5.47;;;;;;;20.80;75.68;98810.38;4970067;28;20238;-52
2022/08/20 07:07:37;;;;;;;10.33;5.90;;;;;;;20.70;76.32;98816.13;4975566;28;20241;-53
2022/08/20 07:10:05;;;;;;;10.77;6.10;;;;;;;20.53;77.33;98812.31;4980479;28;20236;-51
2022/08/20 07:12:33;;;;;;;8.73;6.30;;;;;;;20.63;76.72;98821.47;4976596;28;20303;-51
2022/08/20 07:15:00;;;;;;;13.83;6.40;;;;;;;20.35;78.66;98816.47;4970644;28;20239;-51
2022/08/20 07:17:28;;;;;;;7.73;6.43;;;;;;;20.28;78.86;98807.72;4985918;28;20239;-51
2022/08/20 07:19:56;;;;;;;9.07;6.60;;;;;;;20.27;79.00;98816.72;4982663;28;20230;-51
2022/08/20 07:22:23;;;;;;;8.87;7.07;;;;;;;20.24;79.51;98820.59;4979693;28;20288;-51
2022/08/20 07:24:50;;;;;;;8.27;6.63;;;;;;;20.18;79.67;98819.59;4975205;28;20236;-51
2022/08/20 07:27:21;;;;;;;6.90;6.20;;;;;;;20.33;79.54;98821.16;4970747;28;20289;-53
2022/08/20 07:32:51;;;;;;;8.57;6.97;;;;;;;20.46;78.93;98826.44;4974090;28;20245;-53
2022/08/20 07:35:19;;;;;;;6.93;6.20;;;;;;;20.59;77.96;98828.22;4969766;28;20753;-53
2022/08/20 07:37:48;;;;;;;8.63;7.00;;;;;;;20.57;79.41;98834.75;4966253;28;20236;-52
2022/08/20 07:40:17;;;;;;;8.33;6.23;;;;;;;20.71;78.16;98831.00;4964386;28;20237;-53
2022/08/20 07:42:44;;;;;;;10.73;6.43;;;;;;;20.76;79.08;98831.19;4977952;28;20264;-51
2022/08/20 07:45:14;;;;;;;10.03;6.60;;;;;;;20.75;78.89;98824.25;4969835;28;20237;-54
2022/08/20 07:47:42;;;;;;;9.97;6.47;;;;;;;20.79;77.68;98828.13;4973775;28;20708;-54
2022/08/20 07:50:11;;;;;;;10.73;5.90;;;;;;;20.84;78.16;98832.78;4987319;28;20237;-51
2022/08/20 07:52:39;;;;;;;8.17;5.97;;;;;;;20.88;77.69;98838.50;4976132;28;20231;-51
2022/08/20 07:55:09;;;;;;;7.53;5.97;;;;;;;20.63;77.70;98836.56;4980462;28;20227;-50
2022/08/20 07:57:36;;;;;;;7.50;6.00;;;;;;;20.58;79.21;98841.69;4971587;28;20269;-54
2022/08/20 08:00:04;;;;;;;7.83;6.40;;;;;;;20.48;80.26;98840.28;4963418;28;20784;-51
2022/08/20 08:02:36;;;;;;;12.20;6.20;;;;;;;20.62;80.99;98846.38;4975889;28;20234;-51
2022/08/20 08:05:03;;;;;;;8.57;7.33;;;;;;;20.37;82.27;98840.94;4974036;28;20241;-51
2022/08/20 08:07:30;;;;;;;8.20;6.37;;;;;;;20.33;84.90;98840.56;4980891;28;20258;-54
2022/08/20 08:10:01;;;;;;;10.87;6.60;;;;;;;20.41;89.02;98846.66;4973601;28;20239;-51
2022/08/20 08:12:35;;;;;;;12.60;7.50;;;;;;;20.18;86.40;98848.75;4974864;28;20239;-53
2022/08/20 08:15:03;;;;;;;10.40;6.53;;;;;;;20.27;87.15;98845.88;4976783;28;20583;-54
2022/08/20 08:17:30;;;;;;;10.03;7.03;;;;;;;20.40;86.61;98858.28;4972700;28;20224;-51
2022/08/20 08:19:58;;;;;;;8.33;6.30;;;;;;;20.57;86.13;98851.50;4973006;28;20223;-51
2022/08/20 08:22:25;;;;;;;9.00;6.43;;;;;;;20.68;85.86;98843.88;4973547;28;20743;-53
2022/08/20 08:24:51;;;;;;;8.00;6.80;;;;;;;20.75;85.49;98844.66;4966704;28;20624;-51
2022/08/20 08:27:21;;;;;;;11.30;6.63;;;;;;;20.72;84.50;98848.56;4971732;28;20631;-54
2022/08/20 08:29:48;;;;;;;8.20;6.83;;;;;;;20.77;84.73;98851.41;4977444;28;20228;-51
2022/08/20 08:32:15;;;;;;;7.73;6.57;;;;;;;20.67;85.23;98850.22;4967305;28;20240;-51
2022/08/20 08:34:43;;;;;;;7.93;6.30;;;;;;;20.46;86.74;98842.34;4970225;28;20323;-51
2022/08/20 08:37:28;;;;;;;11.43;5.60;;;;;;;20.38;85.39;98842.56;4967182;28;20242;-51
2022/08/20 08:39:55;;;;;;;6.20;5.30;;;;;;;20.27;86.26;98849.34;4958007;28;20267;-51
2022/08/20 08:42:34;;;;;;;6.50;5.13;;;;;;;20.23;86.04;98840.19;4976280;28;20273;-53
2022/08/20 08:45:03;;;;;;;8.13;4.90;;;;;;;20.17;87.51;98848.97;4976171;28;20259;-51
2022/08/20 08:47:33;;;;;;;6.07;4.63;;;;;;;20.01;87.91;98847.59;4966869;28;20711;-51
2022/08/20 08:50:01;;;;;;;7.97;4.80;;;;;;;20.06;87.21;98847.78;4980885;28;20706;-51
2022/08/20 08:52:31;;;;;;;9.23;5.00;;;;;;;20.12;88.33;98857.56;4968522;28;20299;-50
2022/08/20 08:55:01;;;;;;;4.10;3.70;;;;;;;20.08;88.20;98853.69;4978632;28;20675;-54
2022/08/20 08:57:30;;;;;;;4.33;3.50;;;;;;;20.13;89.02;98861.84;4973519;28;20239;-51
2022/08/20 09:00:05;;;;;;;6.10;4.03;;;;;;;20.20;88.81;98859.16;4967977;28;20686;-51
2022/08/20 09:02:34;;;;;;;3.90;3.10;;;;;;;20.31;87.24;98855.03;4973001;28;20251;-54
2022/08/20 09:05:05;;;;;;;9.17;3.13;;;;;;;20.59;86.60;98853.91;4965420;28;20303;-52
2022/08/20 09:07:33;;;;;;;3.20;2.80;;;;;;;20.83;88.67;98854.25;4971161;28;20236;-51
2022/08/20 09:10:01;;;;;;;3.97;3.57;;;;;;;20.69;85.65;98858.75;4976795;28;20599;-51
2022/08/20 09:12:29;;;;;;;4.87;3.77;;;;;;;20.73;86.02;98852.84;4972145;28;20279;-51
2022/08/20 09:14:56;;;;;;;4.43;3.40;;;;;;;20.73;85.36;98858.13;4972585;28;20318;-52
2022/08/20 09:17:23;;;;;;;3.90;3.13;;;;;;;20.80;84.88;98863.44;4976760;28;20247;-54
2022/08/20 09:19:51;;;;;;;5.03;3.73;;;;;;;20.76;84.80;98856.88;4967767;28;20567;-54
2022/08/20 09:22:20;;;;;;;3.87;3.47;;;;;;;20.97;86.69;98857.63;4974689;28;20587;-52
2022/08/20 09:24:47;;;;;;;4.67;4.17;;;;;;;21.20;83.17;98863.22;4976068;28;20707;-50
2022/08/20 09:27:14;;;;;;;6.13;4.77;;;;;;;21.36;83.41;98861.06;4965104;28;20237;-51
2022/08/20 09:29:42;;;;;;;5.60;4.30;;;;;;;21.70;80.93;98855.50;4972834;28;20232;-53
2022/08/20 09:32:10;;;;;;;4.87;3.63;;;;;;;22.20;77.92;98855.44;4978546;28;20357;-51
2022/08/20 09:34:38;;;;;;;4.10;3.70;;;;;;;22.48;77.84;98861.28;4975869;28;20246;-53
2022/08/20 09:37:04;;;;;;;4.20;3.57;;;;;;;22.32;77.71;98858.16;4976897;28;20360;-52
2022/08/20 09:39:32;;;;;;;4.27;3.07;;;;;;;22.25;77.81;98862.72;4969746;28;20260;-52
2022/08/20 09:42:06;;;;;;;4.63;2.70;;;;;;;22.34;77.17;98860.56;4987041;28;20292;-54
2022/08/20 09:44:33;;;;;;;3.00;2.50;;;;;;;22.16;77.87;98856.91;4977470;28;20284;-51
2022/08/20 09:47:01;;;;;;;3.33;1.83;;;;;;;22.06;77.01;98854.75;4971104;28;20231;-52
2022/08/20 09:49:47;;;;;;;6.63;2.60;;;;;;;21.72;79.60;98851.63;4975621;28;20242;-52
2022/08/20 09:52:21;;;;;;;4.53;2.60;;;;;;;21.55;80.19;98839.88;4974757;28;20407;-52
2022/08/20 09:55:18;;;;;;;3.27;2.30;;;;;;;21.42;79.31;98838.97;4973099;28;20299;-53
2022/08/20 09:57:46;;;;;;;2.83;2.30;;;;;;;21.29;80.07;98839.84;4975305;28;20324;-52
2022/08/20 10:00:14;;;;;;;3.90;2.23;;;;;;;21.38;84.48;98843.06;4977982;28;20252;-54
2022/08/20 10:02:42;;;;;;;4.77;2.43;;;;;;;21.62;87.72;98844.13;4970909;28;20299;-52
2022/08/20 10:05:09;;;;;;;3.30;2.40;;;;;;;21.95;86.91;98837.69;4982578;28;20366;-54
2022/08/20 10:07:37;;;;;;;4.43;2.40;;;;;;;22.15;81.83;98843.81;4974857;28;20243;-51
2022/08/20 10:10:06;;;;;;;3.27;2.53;;;;;;;21.58;85.96;98840.25;4962086;28;20235;-51
2022/08/20 10:12:33;;;;;;;3.90;2.60;;;;;;;21.46;87.44;98844.63;4968417;28;20733;-51
2022/08/20 10:15:00;;;;;;;2.20;2.00;;;;;;;21.41;87.50;98847.13;4973807;28;20706;-51
2022/08/20 10:17:26;;;;;;;4.40;2.60;;;;;;;21.35;86.83;98843.50;4977112;28;20250;-51
2022/08/20 10:19:55;;;;;;;3.20;2.77;;;;;;;21.51;87.31;98847.44;4978639;28;20225;-51
2022/08/20 10:22:40;;;;;;;6.00;3.10;;;;;;;21.69;83.52;98846.72;4972296;28;20714;-51
2022/08/20 10:25:08;;;;;;;3.10;2.40;;;;;;;21.82;81.07;98851.09;4978595;28;20231;-51
2022/08/20 10:30:38;;;;;;;3.70;2.30;;;;;;;22.99;77.45;98859.97;4965550;28;20282;-54
2022/08/20 10:33:05;;;;;;;2.50;2.27;;;;;;;22.89;67.22;98857.06;4975006;28;20240;-51
2022/08/20 10:35:33;;;;;;;2.60;2.37;;;;;;;23.39;64.57;98869.25;4978794;28;20628;-54
2022/08/20 10:38:00;;;;;;;2.10;1.90;;;;;;;23.75;65.16;98863.97;4979297;28;20317;-52
2022/08/20 10:40:27;;;;;;;1.70;1.60;;;;;;;24.22;63.63;98865.00;4980224;28;20235;-53
2022/08/20 10:42:53;;;;;;;2.17;2.00;;;;;;;24.43;61.68;98867.06;4961288;28;20293;-51
2022/08/20 10:45:21;;;;;;;2.23;2.03;;;;;;;24.33;58.69;98869.50;4977841;28;20267;-51
2022/08/20 10:47:48;;;;;;;2.90;1.90;;;;;;;24.08;60.23;98859.13;4969405;28;20236;-53
2022/08/20 10:50:18;;;;;;;1.67;1.57;;;;;;;23.99;61.60;98864.81;4967610;28;20272;-54
2022/08/20 10:52:47;;;;;;;3.53;1.80;;;;;;;23.67;64.18;98859.78;4964907;28;20303;-51
2022/08/20 10:55:13;;;;;;;3.87;1.97;;;;;;;23.74;61.31;98865.03;4981385;28;20763;-52
2022/08/20 10:57:42;;;;;;;4.70;1.70;;;;;;;23.69;62.38;98860.38;4977200;28;20247;-54
2022/08/20 11:00:10;;;;;;;1.70;1.50;;;;;;;23.77;62.52;98863.75;4978599;28;20278;-51
2022/08/20 11:02:37;;;;;;;1.27;1.17;;;;;;;23.85;60.98;98858.06;4976270;28;20333;-51
2022/08/20 11:05:04;;;;;;;3.43;1.40;;;;;;;24.22;58.88;98855.16;4991809;28;20235;-51
2022/08/20 11:07:33;;;;;;;1.93;1.10;;;;;;;24.28;56.75;98859.56;4975583;28;20306;-51
2022/08/20 11:10:01;;;;;;;4.17;1.07;;;;;;;23.89;57.29;98859.22;4963590;28;20304;-54
2022/08/20 11:12:28;;;;;;;1.43;1.00;;;;;;;23.95;59.01;98854.81;4969285;28;20263;-53
2022/08/20 11:14:55;;;;;;;1.73;1.10;;;;;;;23.98;57.54;98857.81;4973658;28;20251;-51
2022/08/20 11:17:23;;;;;;;1.37;1.13;;;;;;;23.55;59.32;98845.66;4974727;28;20259;-54
2022/08/20 11:19:50;;;;;;;0.70;0.70;;;;;;;23.44;60.24;98848.06;4964652;28;20227;-51
2022/08/20 11:22:18;;;;;;;1.27;0.80;;;;;;;23.68;60.92;98847.28;4978380;28;20341;-53
2022/08/20 11:24:45;;;;;;;2.40;1.00;;;;;;;23.86;62.30;98854.34;4963374;28;20247;-51
2022/08/20 11:27:19;;;;;;;2.30;1.00;;;;;;;24.11;55.96;98848.78;4969415;28;20271;-51
2022/08/20 11:29:46;;;;;;;1.63;0.90;;;;;;;24.30;59.03;98853.97;4973655;28;20874;-52
2022/08/20 11:32:13;;;;;;;1.27;0.80;;;;;;;24.74;59.78;98846.34;4964417;28;20241;-52
2022/08/20 11:34:40;;;;;;;2.70;1.00;;;;;;;24.76;54.62;98854.91;4972520;28;20236;-51
2022/08/20 11:37:06;;;;;;;0.93;0.70;;;;;;;24.75;56.25;98857.81;4975143;28;20302;-53
2022/08/20 11:39:33;;;;;;;1.10;0.70;;;;;;;24.51;57.35;98854.38;4974071;28;20226;-51
2022/08/20 11:42:00;;;;;;;1.50;0.70;;;;;;;24.44;56.03;98855.34;4966852;28;20689;-53
2022/08/20 11:44:28;;;;;;;1.20;0.60;;;;;;;25.21;55.70;98852.47;4973953;28;20327;-51
2022/08/20 11:46:58;;;;;;;2.70;0.70;;;;;;;24.89;55.06;98853.00;4964747;28;20225;-51
2022/08/20 11:49:25;;;;;;;0.67;0.50;;;;;;;24.97;54.53;98849.13;4976618;28;20237;-51
2022/08/20 11:51:52;;;;;;;0.73;0.50;;;;;;;24.97;52.46;98841.91;4964158;28;20329;-52